KRRL

Merrill Municipal Airport

Merrill, Wisconsin, USA
METAR KRRL 231500Z AUTO 00000KT 10SM CLR 22/15 A3019 RMK AO2 T02160148
Observed Flight Rules
May-23 @ 15:00 UTC (11 minutes ago) Visual Flight Rules
Visibility Clouds
10 miles
  • Clear skies
Temperatures Readings
Current 22°C / 72°F
Dewpoint 15°C / 59°F
Humidity 65%
Altimeter 30.19" Hg
Pressure 1022 hPa
Elevation 401
METAR KRRL 231500Z AUTO 00000KT 10SM CLR 22/15 A3019 RMK AO2 T02160148
Observed Flight Rules
May-23 @ 15:00 UTC
(11 minutes ago)
VFR
Clouds
  • Clear skies
Temperature Dewpoint
22°C / 72°F 15°C / 59°F
Humidity Altimeter Pressure
65% 30.19" Hg 1022 hPa